Time;durP1;ratioP1;P1;durP2;ratioP2;P2;SDS_P1;SDS_P2;PMS_P1;PMS_P2;Temp;Humidity;BMP_temperature;BMP_pressure;BME280_temperature;BME280_humidity;BME280_pressure;Samples;Min_cycle;Max_cycle;Signal;HPM_P1;HPM_P2
2022/01/10 00:00:55;;;;;;;12.77;9.40;;;3.00;99.90;;;;;;4747028;29;20481;-88
2022/01/10 00:03:23;;;;;;;9.10;7.50;;;3.00;99.90;;;;;;4762655;29;20497;-88
2022/01/10 00:05:49;;;;;;;7.93;7.13;;;3.00;99.90;;;;;;4765237;29;20233;-89
2022/01/10 00:08:15;;;;;;;8.57;7.03;;;3.00;99.90;;;;;;4746861;29;20573;-89
2022/01/10 00:10:42;;;;;;;14.17;10.50;;;3.00;99.90;;;;;;4749564;29;20680;-88
2022/01/10 00:13:08;;;;;;;12.50;8.67;;;2.90;99.90;;;;;;4748567;29;20618;-89
2022/01/10 00:15:34;;;;;;;11.90;7.77;;;2.90;99.90;;;;;;4744887;29;20753;-89
2022/01/10 00:17:59;;;;;;;9.40;8.20;;;2.90;99.90;;;;;;4762714;29;20455;-89
2022/01/10 00:20:25;;;;;;;10.17;8.33;;;2.90;99.90;;;;;;4761762;29;21388;-89
2022/01/10 00:22:52;;;;;;;8.40;7.60;;;2.90;99.90;;;;;;4747064;29;20358;-88
2022/01/10 00:25:20;;;;;;;8.03;7.23;;;2.80;99.90;;;;;;4756278;29;20465;-88
2022/01/10 00:27:49;;;;;;;7.80;7.03;;;2.80;99.90;;;;;;4778055;29;20442;-89
2022/01/10 00:30:15;;;;;;;7.67;6.87;;;2.80;99.90;;;;;;4770730;29;20499;-90
2022/01/10 00:32:43;;;;;;;8.20;7.40;;;2.90;99.90;;;;;;4763937;29;20494;-90
2022/01/10 00:35:10;;;;;;;10.27;6.90;;;2.90;99.90;;;;;;4745365;29;20843;-89
2022/01/10 00:37:37;;;;;;;9.80;7.30;;;2.80;99.90;;;;;;4760394;29;20992;-89
2022/01/10 00:40:05;;;;;;;9.07;7.93;;;2.80;99.90;;;;;;4744706;29;20465;-88
2022/01/10 00:42:33;;;;;;;9.13;6.57;;;2.70;99.90;;;;;;4770077;29;20543;-89
2022/01/10 00:45:01;;;;;;;9.70;6.60;;;2.70;99.90;;;;;;4772510;29;20455;-88
2022/01/10 00:47:27;;;;;;;7.13;6.37;;;2.70;99.90;;;;;;4759010;29;20550;-89
2022/01/10 00:49:53;;;;;;;8.83;7.53;;;2.80;99.90;;;;;;4757512;29;20997;-89
2022/01/10 00:52:22;;;;;;;7.57;6.80;;;2.80;99.90;;;;;;4758155;29;20455;-89
2022/01/10 00:54:48;;;;;;;6.83;6.13;;;2.90;99.90;;;;;;4765660;29;20462;-88
2022/01/10 00:57:14;;;;;;;9.07;5.47;;;3.00;99.90;;;;;;4754721;29;20576;-88
2022/01/10 00:59:39;;;;;;;6.90;6.30;;;3.00;99.90;;;;;;4744652;29;20470;-87
2022/01/10 01:02:05;;;;;;;11.40;6.90;;;3.00;99.90;;;;;;4760608;29;20254;-88
2022/01/10 01:04:31;;;;;;;11.03;7.50;;;3.00;99.90;;;;;;4759667;29;20221;-88
2022/01/10 01:06:57;;;;;;;7.20;5.70;;;3.00;99.90;;;;;;4739254;29;20197;-88
2022/01/10 01:09:27;;;;;;;10.63;6.47;;;3.00;99.90;;;;;;4744076;29;20213;-89
2022/01/10 01:17:14;;;;;;;5.23;4.73;;;3.00;99.90;;;;;;4761264;29;20972;-89
2022/01/10 01:25:17;;;;;;;9.33;5.80;;;3.10;99.90;;;;;;4776197;29;20920;-89
2022/01/10 01:27:43;;;;;;;6.40;5.57;;;3.10;99.90;;;;;;4764765;29;20464;-89
2022/01/10 01:30:11;;;;;;;6.40;5.10;;;3.20;99.90;;;;;;4769860;29;20789;-89
2022/01/10 01:32:37;;;;;;;7.20;5.50;;;3.20;99.90;;;;;;4758484;29;20710;-89
2022/01/10 01:35:06;;;;;;;7.00;6.30;;;3.10;99.90;;;;;;4741809;29;20475;-89
2022/01/10 01:37:35;;;;;;;5.33;4.93;;;3.10;99.90;;;;;;4739468;29;20458;-88
2022/01/10 01:40:01;;;;;;;6.63;5.80;;;3.20;99.90;;;;;;4737312;29;20521;-89
2022/01/10 01:42:34;;;;;;;6.37;5.50;;;3.30;99.90;;;;;;4740365;29;20804;-89
2022/01/10 01:45:02;;;;;;;7.70;5.87;;;3.30;99.90;;;;;;4745563;29;20466;-89
2022/01/10 01:47:27;;;;;;;7.03;6.23;;;3.00;99.90;;;;;;4759713;29;20566;-89
2022/01/10 01:49:53;;;;;;;7.87;6.30;;;2.90;99.90;;;;;;4757627;29;21533;-89
2022/01/10 01:52:19;;;;;;;6.63;6.03;;;2.80;99.90;;;;;;4770681;29;20197;-89
2022/01/10 01:54:45;;;;;;;7.17;5.87;;;2.90;99.90;;;;;;4774087;29;20945;-88
2022/01/10 01:57:11;;;;;;;6.50;5.90;;;3.00;99.90;;;;;;4755802;29;20189;-88
2022/01/10 01:59:37;;;;;;;8.83;6.50;;;3.00;99.90;;;;;;4750728;29;20270;-88
2022/01/10 02:02:04;;;;;;;10.80;5.60;;;3.00;99.90;;;;;;4756170;29;20678;-88
2022/01/10 02:04:30;;;;;;;8.63;5.87;;;3.00;99.90;;;;;;4739946;29;20471;-88
2022/01/10 02:06:56;;;;;;;8.10;6.23;;;3.00;99.90;;;;;;4742169;29;20542;-88
2022/01/10 02:09:22;;;;;;;10.27;5.40;;;3.10;99.90;;;;;;4760360;29;20477;-88
2022/01/10 02:11:47;;;;;;;6.90;5.37;;;3.10;99.90;;;;;;4758674;29;20208;-88
2022/01/10 02:14:17;;;;;;;6.63;5.80;;;3.10;99.90;;;;;;4744499;29;20863;-89
2022/01/10 02:16:45;;;;;;;6.97;5.50;;;3.10;99.90;;;;;;4760696;29;21078;-89
2022/01/10 02:19:12;;;;;;;7.87;6.20;;;3.10;99.90;;;;;;4760563;29;21079;-89
2022/01/10 02:21:39;;;;;;;10.33;6.57;;;3.00;99.90;;;;;;4755289;29;20550;-89
2022/01/10 02:24:05;;;;;;;7.17;6.10;;;2.80;99.90;;;;;;4742165;29;20462;-88
2022/01/10 02:26:32;;;;;;;6.20;5.60;;;2.70;99.90;;;;;;4742183;29;21132;-89
2022/01/10 02:28:58;;;;;;;6.00;5.37;;;2.80;99.90;;;;;;4752507;29;20611;-89
2022/01/10 02:31:26;;;;;;;5.20;4.73;;;2.90;99.90;;;;;;4754949;29;20558;-89
2022/01/10 02:33:56;;;;;;;6.47;5.10;;;2.80;99.90;;;;;;4755222;29;20457;-88
2022/01/10 02:36:26;;;;;;;6.10;4.90;;;2.90;99.90;;;;;;4736687;29;20875;-88
2022/01/10 02:38:55;;;;;;;5.70;5.20;;;3.00;99.90;;;;;;4759099;29;21219;-88
2022/01/10 02:41:27;;;;;;;5.40;5.00;;;2.90;99.90;;;;;;4760414;29;20461;-89
2022/01/10 02:43:54;;;;;;;6.50;5.37;;;2.90;99.90;;;;;;4775856;29;20540;-89
2022/01/10 02:46:21;;;;;;;7.50;4.77;;;3.00;99.90;;;;;;4771013;29;20807;-89
2022/01/10 02:48:48;;;;;;;5.83;5.30;;;3.00;99.90;;;;;;4766323;29;20454;-89
2022/01/10 02:51:14;;;;;;;8.47;4.90;;;3.10;99.90;;;;;;4761344;29;20495;-89
2022/01/10 02:53:39;;;;;;;6.63;5.60;;;3.20;99.90;;;;;;4763837;29;20450;-88
2022/01/10 02:56:05;;;;;;;6.20;5.20;;;3.20;99.90;;;;;;4760786;29;20686;-89
2022/01/10 02:58:31;;;;;;;8.17;6.20;;;3.20;99.90;;;;;;4763981;29;20944;-89
2022/01/10 03:00:57;;;;;;;7.57;5.50;;;3.20;99.90;;;;;;4770400;29;20205;-89
2022/01/10 03:03:30;;;;;;;10.80;6.37;;;3.20;99.90;;;;;;4745021;29;20471;-89
2022/01/10 03:05:56;;;;;;;5.90;5.27;;;3.20;99.90;;;;;;4757536;29;20259;-88
2022/01/10 03:08:23;;;;;;;7.33;5.67;;;3.10;99.90;;;;;;4757492;29;20451;-89
2022/01/10 03:10:49;;;;;;;8.20;6.13;;;3.10;99.90;;;;;;4758584;29;20530;-89
2022/01/10 03:13:15;;;;;;;6.70;5.80;;;3.10;99.90;;;;;;4761416;29;20535;-89
2022/01/10 03:15:41;;;;;;;6.10;5.50;;;3.10;99.90;;;;;;4745462;30;20620;-89
2022/01/10 03:18:06;;;;;;;5.87;5.30;;;3.10;99.90;;;;;;4762095;29;20203;-89
2022/01/10 03:20:32;;;;;;;6.07;5.47;;;3.10;99.90;;;;;;4754491;30;20197;-89
2022/01/10 03:22:58;;;;;;;5.50;5.00;;;3.00;99.90;;;;;;4780581;29;20182;-89
2022/01/10 03:25:24;;;;;;;5.60;4.97;;;3.10;99.90;;;;;;4776408;29;20451;-88
2022/01/10 03:27:49;;;;;;;6.70;4.87;;;3.10;99.90;;;;;;4753621;30;20187;-89
2022/01/10 03:30:15;;;;;;;5.43;4.43;;;3.10;99.90;;;;;;4765296;29;20869;-88
2022/01/10 03:32:42;;;;;;;5.93;5.00;;;3.10;99.90;;;;;;4763460;29;20408;-89
2022/01/10 03:35:09;;;;;;;6.33;5.73;;;3.00;99.90;;;;;;4761241;29;20446;-89
2022/01/10 03:37:34;;;;;;;5.10;4.60;;;3.10;99.90;;;;;;4763696;29;20875;-89
2022/01/10 03:40:00;;;;;;;5.20;4.53;;;3.00;99.90;;;;;;4762077;29;20483;-88
2022/01/10 03:42:27;;;;;;;5.30;4.80;;;3.00;99.90;;;;;;4759963;29;20189;-89
2022/01/10 03:44:53;;;;;;;6.23;5.57;;;3.00;99.90;;;;;;4762184;29;20296;-89
2022/01/10 03:47:21;;;;;;;7.77;5.90;;;3.10;99.90;;;;;;4774448;29;20448;-89
2022/01/10 03:49:46;;;;;;;7.10;5.03;;;3.00;99.90;;;;;;4763263;29;20611;-89
2022/01/10 03:52:12;;;;;;;6.90;5.60;;;3.00;99.90;;;;;;4778064;29;20580;-89
2022/01/10 03:54:38;;;;;;;6.13;5.53;;;3.00;99.90;;;;;;4775275;29;20193;-89
2022/01/10 03:57:05;;;;;;;5.90;5.30;;;3.10;99.90;;;;;;4782363;29;20197;-89
2022/01/10 03:59:32;;;;;;;5.70;4.83;;;3.10;99.90;;;;;;4764288;29;20898;-89
2022/01/10 04:01:57;;;;;;;8.53;7.03;;;3.10;99.90;;;;;;4750246;29;21159;-88
2022/01/10 04:04:23;;;;;;;7.70;6.80;;;3.10;99.90;;;;;;4746719;29;20995;-89
2022/01/10 04:06:50;;;;;;;6.67;5.73;;;3.10;99.90;;;;;;4742659;29;20220;-89
2022/01/10 04:09:19;;;;;;;6.30;4.80;;;3.00;99.90;;;;;;4744129;29;20228;-88
2022/01/10 04:11:45;;;;;;;6.93;5.10;;;3.00;99.90;;;;;;4762463;29;20519;-89
2022/01/10 04:14:11;;;;;;;5.27;4.60;;;3.00;99.90;;;;;;4762187;29;20671;-89
2022/01/10 04:16:37;;;;;;;6.03;4.83;;;3.00;99.90;;;;;;4760736;29;20490;-89
2022/01/10 04:19:03;;;;;;;6.57;5.03;;;2.90;99.90;;;;;;4763734;29;22147;-89
2022/01/10 04:21:29;;;;;;;6.20;5.00;;;2.90;99.90;;;;;;4748306;30;20643;-89
2022/01/10 04:23:54;;;;;;;5.87;4.27;;;2.90;99.90;;;;;;4780703;29;20447;-89
2022/01/10 04:26:20;;;;;;;7.73;4.87;;;2.90;99.90;;;;;;4777709;29;20450;-89
2022/01/10 04:28:46;;;;;;;5.20;4.03;;;2.90;99.90;;;;;;4766639;29;20661;-89
2022/01/10 04:31:12;;;;;;;4.40;4.00;;;2.80;99.90;;;;;;4744692;29;20263;-89
2022/01/10 04:33:38;;;;;;;7.50;4.30;;;2.80;99.90;;;;;;4763010;29;21489;-89
2022/01/10 04:36:05;;;;;;;5.00;4.50;;;2.80;99.90;;;;;;4746404;29;20483;-88
2022/01/10 04:38:30;;;;;;;4.90;4.27;;;2.80;99.90;;;;;;4748842;30;20463;-89
2022/01/10 04:40:57;;;;;;;6.70;4.87;;;2.90;99.90;;;;;;4745598;29;20542;-88
2022/01/10 04:43:22;;;;;;;8.70;4.67;;;2.90;99.90;;;;;;4764186;29;20212;-89
2022/01/10 04:45:48;;;;;;;5.37;4.13;;;2.90;99.90;;;;;;4762932;29;21072;-89
2022/01/10 04:48:18;;;;;;;7.40;4.70;;;2.90;99.90;;;;;;4765313;29;20204;-89
2022/01/10 04:53:20;;;;;;;5.40;4.67;;;2.90;99.90;;;;;;4757950;29;20443;-89
2022/01/10 04:55:46;;;;;;;5.50;5.00;;;2.90;99.90;;;;;;4763237;29;20636;-89
2022/01/10 04:58:14;;;;;;;4.10;3.80;;;3.00;99.90;;;;;;4776218;29;20818;-89
2022/01/10 05:00:39;;;;;;;3.70;3.40;;;3.00;99.90;;;;;;4751267;29;20201;-89
2022/01/10 05:03:05;;;;;;;4.73;4.33;;;3.00;99.90;;;;;;4742284;30;20556;-89
2022/01/10 05:05:31;;;;;;;5.53;4.37;;;3.10;99.90;;;;;;4741220;29;20688;-91
2022/01/10 05:07:57;;;;;;;5.83;3.90;;;3.00;99.90;;;;;;4756686;29;20209;-90
2022/01/10 05:10:23;;;;;;;7.03;4.40;;;3.10;99.90;;;;;;4742281;29;20256;-89
2022/01/10 05:12:49;;;;;;;7.97;3.90;;;3.00;99.90;;;;;;4742659;30;20506;-90
2022/01/10 05:15:14;;;;;;;4.67;4.27;;;3.00;99.90;;;;;;4743886;29;20755;-88
2022/01/10 05:17:40;;;;;;;6.03;5.00;;;3.00;99.90;;;;;;4763552;29;20196;-89
2022/01/10 05:20:06;;;;;;;7.23;5.40;;;3.00;99.90;;;;;;4747116;29;20197;-89
2022/01/10 05:22:32;;;;;;;8.30;5.70;;;3.00;99.90;;;;;;4746487;29;20246;-89
2022/01/10 05:24:58;;;;;;;6.97;5.40;;;2.90;99.90;;;;;;4746268;29;20570;-89
2022/01/10 05:27:24;;;;;;;6.70;5.70;;;2.90;99.90;;;;;;4751069;29;20540;-89
2022/01/10 05:29:49;;;;;;;5.23;4.63;;;2.90;99.90;;;;;;4746927;29;20290;-88
2022/01/10 05:32:15;;;;;;;5.47;4.53;;;2.90;99.90;;;;;;4761491;29;20625;-89
2022/01/10 05:34:41;;;;;;;4.77;4.37;;;3.10;99.90;;;;;;4766977;29;20724;-89
2022/01/10 05:37:07;;;;;;;6.27;4.67;;;3.10;99.90;;;;;;4760705;29;20185;-90
2022/01/10 05:39:35;;;;;;;6.63;5.07;;;3.20;99.90;;;;;;4753960;29;20453;-88
2022/01/10 05:42:01;;;;;;;5.57;4.80;;;3.10;99.90;;;;;;4762029;29;20356;-88
2022/01/10 05:44:34;;;;;;;6.50;5.70;;;3.20;99.90;;;;;;4757792;29;20461;-91
2022/01/10 05:47:01;;;;;;;6.50;5.17;;;3.20;99.90;;;;;;4739841;29;20536;-90
2022/01/10 05:49:33;;;;;;;6.63;5.40;;;3.30;99.90;;;;;;4759934;29;21194;-89
2022/01/10 05:52:26;;;;;;;8.70;5.10;;;3.40;99.90;;;;;;4759465;29;20456;-93
2022/01/10 05:55:34;;;;;;;6.03;5.17;;;3.40;99.90;;;;;;4761318;29;20539;-92
2022/01/10 05:58:12;;;;;;;6.60;5.07;;;3.50;99.90;;;;;;4756498;29;20538;-92
2022/01/10 06:00:43;;;;;;;6.50;5.00;;;3.50;99.90;;;;;;4755436;29;20455;-91
2022/01/10 06:03:09;;;;;;;6.30;4.53;;;3.50;99.90;;;;;;4746495;29;20450;-89
2022/01/10 06:05:55;;;;;;;5.20;4.70;;;3.50;99.90;;;;;;4736012;29;20625;-92
2022/01/10 06:08:59;;;;;;;5.80;4.67;;;3.50;99.90;;;;;;4729860;29;20762;-91
2022/01/10 06:11:27;;;;;;;7.03;4.47;;;3.50;99.90;;;;;;4751622;29;20582;-91
